sensor_id;sensor_type;location;lat;lon;timestamp;P1;P2;P0
55857;PMS7003;41779;52.360;31.026;2022-11-13T00:04:39;3.8;2.8;2.3
55857;PMS7003;41779;52.360;31.026;2022-11-13T00:09:37;3.4;2;1.8
55857;PMS7003;41779;52.360;31.026;2022-11-13T00:14:37;3.4;2.6;2.2
55857;PMS7003;41779;52.360;31.026;2022-11-13T00:19:13;4;2.8;2.4
55857;PMS7003;41779;52.360;31.026;2022-11-13T00:24:39;4;3.2;2.6
55857;PMS7003;41779;52.360;31.026;2022-11-13T00:29:39;4;3.6;3
55857;PMS7003;41779;52.360;31.026;2022-11-13T00:34:21;3.6;3;2.6
55857;PMS7003;41779;52.360;31.026;2022-11-13T00:39:51;5;3.6;2.6
55857;PMS7003;41779;52.360;31.026;2022-11-13T00:44:37;3;2.2;2
55857;PMS7003;41779;52.360;31.026;2022-11-13T00:49:13;3.4;2.2;1.8
55857;PMS7003;41779;52.360;31.026;2022-11-13T00:54:25;1.6;1.2;1
55857;PMS7003;41779;52.360;31.026;2022-11-13T00:59:51;2;1.8;1.6
55857;PMS7003;41779;52.360;31.026;2022-11-13T01:04:51;2.3;2;1.5
55857;PMS7003;41779;52.360;31.026;2022-11-13T01:09:07;2.2;2;1.4
55857;PMS7003;41779;52.360;31.026;2022-11-13T01:14:08;2.8;1.6;1.2
55857;PMS7003;41779;52.360;31.026;2022-11-13T01:19:35;2.8;2.4;2
55857;PMS7003;41779;52.360;31.026;2022-11-13T01:24:39;3.2;2.6;2
55857;PMS7003;41779;52.360;31.026;2022-11-13T01:29:39;4;2.4;2.2
55857;PMS7003;41779;52.360;31.026;2022-11-13T01:34:07;3.8;2.6;2.2
55857;PMS7003;41779;52.360;31.026;2022-11-13T01:39:17;3.4;3;2.4
55857;PMS7003;41779;52.360;31.026;2022-11-13T01:44:56;6.4;3.2;2.8
55857;PMS7003;41779;52.360;31.026;2022-11-13T01:49:22;4.6;3.2;2.8
55857;PMS7003;41779;52.360;31.026;2022-11-13T01:54:38;4.4;3.2;2.8
55857;PMS7003;41779;52.360;31.026;2022-11-13T01:59:08;4;2.6;2.2
55857;PMS7003;41779;52.360;31.026;2022-11-13T02:04:17;3.3;3;2.3
55857;PMS7003;41779;52.360;31.026;2022-11-13T02:09:40;5.4;2.8;2.4
55857;PMS7003;41779;52.360;31.026;2022-11-13T02:14:42;5.2;2.8;2.4
55857;PMS7003;41779;52.360;31.026;2022-11-13T02:19:56;2.8;1.4;1.2
55857;PMS7003;41779;52.360;31.026;2022-11-13T02:24:53;2.4;1.6;1.2
55857;PMS7003;41779;52.360;31.026;2022-11-13T02:29:30;2.6;2;1.8
55857;PMS7003;41779;52.360;31.026;2022-11-13T02:34:41;4.8;2.6;2
55857;PMS7003;41779;52.360;31.026;2022-11-13T02:39:53;3;1.8;1.4
55857;PMS7003;41779;52.360;31.026;2022-11-13T02:44:07;2;1.6;1.2
55857;PMS7003;41779;52.360;31.026;2022-11-13T02:49:56;1.8;1.2;1.2
55857;PMS7003;41779;52.360;31.026;2022-11-13T02:54:07;3.2;2;1.4
55857;PMS7003;41779;52.360;31.026;2022-11-13T02:59:55;3.6;2.2;1.8
55857;PMS7003;41779;52.360;31.026;2022-11-13T03:04:27;2.8;1.5;1.5
55857;PMS7003;41779;52.360;31.026;2022-11-13T03:09:53;3.2;2.2;1.6
55857;PMS7003;41779;52.360;31.026;2022-11-13T03:14:27;2.6;2.2;1.8
55857;PMS7003;41779;52.360;31.026;2022-11-13T03:19:07;2.4;1.6;1.4
55857;PMS7003;41779;52.360;31.026;2022-11-13T03:24:27;2.2;1.6;1.4
55857;PMS7003;41779;52.360;31.026;2022-11-13T03:29:39;2;1.8;1.6
55857;PMS7003;41779;52.360;31.026;2022-11-13T03:34:53;2.2;1.4;1.2
55857;PMS7003;41779;52.360;31.026;2022-11-13T03:39:41;2.4;1;1
55857;PMS7003;41779;52.360;31.026;2022-11-13T03:44:07;2.2;1.4;1.2
55857;PMS7003;41779;52.360;31.026;2022-11-13T03:49:20;2.4;1.8;1.8
55857;PMS7003;41779;52.360;31.026;2022-11-13T03:54:19;2.2;1.6;1.6
55857;PMS7003;41779;52.360;31.026;2022-11-13T03:59:15;2.6;1.6;1.4
55857;PMS7003;41779;52.360;31.026;2022-11-13T04:04:39;2.5;1.8;1.5
55857;PMS7003;41779;52.360;31.026;2022-11-13T04:09:07;3;1.8;1.4
55857;PMS7003;41779;52.360;31.026;2022-11-13T04:14:53;3.2;2.2;1.8
55857;PMS7003;41779;52.360;31.026;2022-11-13T04:19:27;2.2;1.6;1.6
55857;PMS7003;41779;52.360;31.026;2022-11-13T04:24:39;1.6;1.6;1.2
55857;PMS7003;41779;52.360;31.026;2022-11-13T04:29:17;4.6;2.4;2.2
55857;PMS7003;41779;52.360;31.026;2022-11-13T04:34:07;3.2;2.2;2
55857;PMS7003;41779;52.360;31.026;2022-11-13T04:39:29;3.2;2.4;2.2
55857;PMS7003;41779;52.360;31.026;2022-11-13T04:44:41;4;2;1.6
55857;PMS7003;41779;52.360;31.026;2022-11-13T04:49:41;3.2;2.4;2
55857;PMS7003;41779;52.360;31.026;2022-11-13T04:54:55;2;1.8;1.6
55857;PMS7003;41779;52.360;31.026;2022-11-13T04:59:17;4.6;3.6;2.4
55857;PMS7003;41779;52.360;31.026;2022-11-13T05:04:41;5.6;4;3.4
55857;PMS7003;41779;52.360;31.026;2022-11-13T05:09:39;5.5;5;3.8
55857;PMS7003;41779;52.360;31.026;2022-11-13T05:14:27;5.2;3.8;3.4
55857;PMS7003;41779;52.360;31.026;2022-11-13T05:19:53;5;4;3.2
55857;PMS7003;41779;52.360;31.026;2022-11-13T05:24:17;5;3.8;3
55857;PMS7003;41779;52.360;31.026;2022-11-13T05:29:53;8.6;5.6;4.2
55857;PMS7003;41779;52.360;31.026;2022-11-13T05:34:29;9;6.6;4.6
55857;PMS7003;41779;52.360;31.026;2022-11-13T05:39:55;7.2;5.6;3.8
55857;PMS7003;41779;52.360;31.026;2022-11-13T05:44:17;7.6;5.6;4.2
55857;PMS7003;41779;52.360;31.026;2022-11-13T05:49:17;10.4;5.8;4.8
55857;PMS7003;41779;52.360;31.026;2022-11-13T05:54:29;7.8;6.6;4.6
55857;PMS7003;41779;52.360;31.026;2022-11-13T05:59:55;7;5.6;4.6
55857;PMS7003;41779;52.360;31.026;2022-11-13T06:04:55;8;5.4;4.2
55857;PMS7003;41779;52.360;31.026;2022-11-13T06:09:53;7.5;4.8;4
55857;PMS7003;41779;52.360;31.026;2022-11-13T06:14:19;7.8;6;5.4
55857;PMS7003;41779;52.360;31.026;2022-11-13T06:19:39;8.6;6.8;5.2
55857;PMS7003;41779;52.360;31.026;2022-11-13T06:24:41;8;6.8;5
55857;PMS7003;41779;52.360;31.026;2022-11-13T06:29:08;7.8;6.4;4.8
55857;PMS7003;41779;52.360;31.026;2022-11-13T06:34:55;9.4;7.6;5.2
55857;PMS7003;41779;52.360;31.026;2022-11-13T06:39:08;9;5;4
55857;PMS7003;41779;52.360;31.026;2022-11-13T06:44:55;6.2;5.2;4
55857;PMS7003;41779;52.360;31.026;2022-11-13T06:49:19;9.8;7.2;5.4
55857;PMS7003;41779;52.360;31.026;2022-11-13T06:54:43;6.4;4;3
55857;PMS7003;41779;52.360;31.026;2022-11-13T06:59:27;5.8;3.8;3.2
55857;PMS7003;41779;52.360;31.026;2022-11-13T07:04:08;5.6;4;3.2
55857;PMS7003;41779;52.360;31.026;2022-11-13T07:09:07;7;4.8;3.5
55857;PMS7003;41779;52.360;31.026;2022-11-13T07:14:39;5.2;3.8;3.2
55857;PMS7003;41779;52.360;31.026;2022-11-13T07:19:17;7;4;3.4
55857;PMS7003;41779;52.360;31.026;2022-11-13T07:24:55;4.5;3;2.8
55857;PMS7003;41779;52.360;31.026;2022-11-13T07:29:07;4.4;3.4;2.8
55857;PMS7003;41779;52.360;31.026;2022-11-13T07:34:55;6.8;4.4;4
55857;PMS7003;41779;52.360;31.026;2022-11-13T07:39:39;6.2;5;4.2
55857;PMS7003;41779;52.360;31.026;2022-11-13T07:44:17;6;3.8;3.2
55857;PMS7003;41779;52.360;31.026;2022-11-13T07:49:39;7;4.6;3.4
55857;PMS7003;41779;52.360;31.026;2022-11-13T07:54:17;7.2;5.2;4
55857;PMS7003;41779;52.360;31.026;2022-11-13T07:59:55;11;9;6.2
55857;PMS7003;41779;52.360;31.026;2022-11-13T08:04:29;10.6;7.4;5.6
55857;PMS7003;41779;52.360;31.026;2022-11-13T08:09:55;12.2;8.6;6.6
55857;PMS7003;41779;52.360;31.026;2022-11-13T08:14:25;8.8;7.6;5.8
55857;PMS7003;41779;52.360;31.026;2022-11-13T08:19:08;9.2;5.4;4.2
55857;PMS7003;41779;52.360;31.026;2022-11-13T08:24:08;13.6;10.8;7
55857;PMS7003;41779;52.360;31.026;2022-11-13T08:29:39;25;18.8;11.5
55857;PMS7003;41779;52.360;31.026;2022-11-13T08:34:29;12.6;11.2;8.6
55857;PMS7003;41779;52.360;31.026;2022-11-13T08:39:51;15.8;13.2;9.4
55857;PMS7003;41779;52.360;31.026;2022-11-13T08:44:30;11.6;10;7.4
55857;PMS7003;41779;52.360;31.026;2022-11-13T08:49:54;21.4;14.4;11
55857;PMS7003;41779;52.360;31.026;2022-11-13T08:54:09;19.4;14.6;11.6
55857;PMS7003;41779;52.360;31.026;2022-11-13T08:59:41;19.2;16;12
55857;PMS7003;41779;52.360;31.026;2022-11-13T09:04:29;11.2;9.2;8
55857;PMS7003;41779;52.360;31.026;2022-11-13T09:09:18;13.4;8.4;6
55857;PMS7003;41779;52.360;31.026;2022-11-13T09:14:55;7.4;5.4;4.4
55857;PMS7003;41779;52.360;31.026;2022-11-13T09:19:27;7;5;4.2
55857;PMS7003;41779;52.360;31.026;2022-11-13T09:24:44;5.4;3.2;2.6
55857;PMS7003;41779;52.360;31.026;2022-11-13T09:29:15;6;5.3;4
55857;PMS7003;41779;52.360;31.026;2022-11-13T09:34:07;3.2;2.6;2
55857;PMS7003;41779;52.360;31.026;2022-11-13T09:39:27;2.2;1.6;1
55857;PMS7003;41779;52.360;31.026;2022-11-13T09:44:41;2.4;1.4;1
55857;PMS7003;41779;52.360;31.026;2022-11-13T09:49:28;1.8;1.8;1.4
55857;PMS7003;41779;52.360;31.026;2022-11-13T09:54:53;2;1.2;1
55857;PMS7003;41779;52.360;31.026;2022-11-13T09:59:19;5;3;2.2
55857;PMS7003;41779;52.360;31.026;2022-11-13T10:04:55;3.2;2.2;1.6
55857;PMS7003;41779;52.360;31.026;2022-11-13T10:09:44;2.6;0.6;0.6
55857;PMS7003;41779;52.360;31.026;2022-11-13T10:14:54;1.4;1;1
55857;PMS7003;41779;52.360;31.026;2022-11-13T10:19:41;3.4;2;1.8
55857;PMS7003;41779;52.360;31.026;2022-11-13T10:24:20;2;1.2;0.8
55857;PMS7003;41779;52.360;31.026;2022-11-13T10:29:56;1.8;0.8;0.8
55857;PMS7003;41779;52.360;31.026;2022-11-13T10:34:57;3.4;1.8;1.4
55857;PMS7003;41779;52.360;31.026;2022-11-13T10:39:42;1.6;1.4;1
55857;PMS7003;41779;52.360;31.026;2022-11-13T10:44:16;1.6;1;0.8
55857;PMS7003;41779;52.360;31.026;2022-11-13T10:49:10;1.6;0.4;0.4
55857;PMS7003;41779;52.360;31.026;2022-11-13T10:54:19;1.2;0.8;0.4
55857;PMS7003;41779;52.360;31.026;2022-11-13T10:59:56;1;0.6;0.6
55857;PMS7003;41779;52.360;31.026;2022-11-13T11:04:30;2.4;1.2;0.8
55857;PMS7003;41779;52.360;31.026;2022-11-13T11:09:39;4;3;2.8
55857;PMS7003;41779;52.360;31.026;2022-11-13T11:14:19;4;3;2.2
55857;PMS7003;41779;52.360;31.026;2022-11-13T11:19:54;1.4;0.8;0.8
55857;PMS7003;41779;52.360;31.026;2022-11-13T11:24:19;1.6;0.6;0.6
55857;PMS7003;41779;52.360;31.026;2022-11-13T11:29:40;1.8;1.3;1
55857;PMS7003;41779;52.360;31.026;2022-11-13T11:34:54;2;1;0.8
55857;PMS7003;41779;52.360;31.026;2022-11-13T11:39:27;4;2.8;2.4
55857;PMS7003;41779;52.360;31.026;2022-11-13T11:44:59;3.4;2.4;2.2
55857;PMS7003;41779;52.360;31.026;2022-11-13T11:49:56;2.8;1.8;1.6
55857;PMS7003;41779;52.360;31.026;2022-11-13T11:54:58;2.2;1.6;1.6
55857;PMS7003;41779;52.360;31.026;2022-11-13T11:59:21;1.8;1.4;1.2
55857;PMS7003;41779;52.360;31.026;2022-11-13T12:04:22;2.4;1.6;1.4
55857;PMS7003;41779;52.360;31.026;2022-11-13T12:09:42;4.4;2.6;2
55857;PMS7003;41779;52.360;31.026;2022-11-13T12:14:58;2;1.8;1.6
55857;PMS7003;41779;52.360;31.026;2022-11-13T12:19:31;2.5;2.5;2
55857;PMS7003;41779;52.360;31.026;2022-11-13T12:34:54;2.5;2.5;2
55857;PMS7003;41779;52.360;31.026;2022-11-13T12:39:26;6.5;2.5;2
55857;PMS7003;41779;52.360;31.026;2022-11-13T12:44:58;1.6;0.8;0.6
55857;PMS7003;41779;52.360;31.026;2022-11-13T12:49:58;2;2;1.8
55857;PMS7003;41779;52.360;31.026;2022-11-13T12:54:23;3.6;2.8;2.4
55857;PMS7003;41779;52.360;31.026;2022-11-13T12:59:56;4;2.8;2.6
55857;PMS7003;41779;52.360;31.026;2022-11-13T13:04:59;6.4;4.6;3.2
55857;PMS7003;41779;52.360;31.026;2022-11-13T13:09:56;4.2;3.8;3.4
55857;PMS7003;41779;52.360;31.026;2022-11-13T13:14:49;3.4;2.4;2
55857;PMS7003;41779;52.360;31.026;2022-11-13T13:19:22;3.4;2.6;2.4
55857;PMS7003;41779;52.360;31.026;2022-11-13T13:24:31;4.8;3;2.8
55857;PMS7003;41779;52.360;31.026;2022-11-13T13:29:56;6;3.8;3
55857;PMS7003;41779;52.360;31.026;2022-11-13T13:34:30;5.2;4.2;3.6
55857;PMS7003;41779;52.360;31.026;2022-11-13T13:39:55;7;5.6;4.2
55857;PMS7003;41779;52.360;31.026;2022-11-13T13:44:33;9;6.6;5.6
55857;PMS7003;41779;52.360;31.026;2022-11-13T13:49:54;4.6;3.4;3
55857;PMS7003;41779;52.360;31.026;2022-11-13T13:54:28;9.4;5.8;4.2
55857;PMS7003;41779;52.360;31.026;2022-11-13T13:59:40;9;8.2;5.8
55857;PMS7003;41779;52.360;31.026;2022-11-13T14:04:28;8.8;7.2;5
55857;PMS7003;41779;52.360;31.026;2022-11-13T14:09:18;12.3;10.5;7.3
55857;PMS7003;41779;52.360;31.026;2022-11-13T14:14:54;12;8.6;6.2
55857;PMS7003;41779;52.360;31.026;2022-11-13T14:19:54;7.4;5;3.8
55857;PMS7003;41779;52.360;31.026;2022-11-13T14:24:56;12;9;6.8
55857;PMS7003;41779;52.360;31.026;2022-11-13T14:29:31;11;8.4;5.6
55857;PMS7003;41779;52.360;31.026;2022-11-13T14:34:08;11.3;9.5;6.5
55857;PMS7003;41779;52.360;31.026;2022-11-13T14:39:10;9.8;7.2;5.4
55857;PMS7003;41779;52.360;31.026;2022-11-13T14:45:04;8.8;5.4;4.4
55857;PMS7003;41779;52.360;31.026;2022-11-13T14:49:30;6.6;4.8;4.2
55857;PMS7003;41779;52.360;31.026;2022-11-13T14:54:44;3.8;3.4;3
55857;PMS7003;41779;52.360;31.026;2022-11-13T14:59:23;5.4;3.4;2.8
55857;PMS7003;41779;52.360;31.026;2022-11-13T15:04:56;9.4;7.6;5.6
55857;PMS7003;41779;52.360;31.026;2022-11-13T15:09:18;10;6.6;4.8
55857;PMS7003;41779;52.360;31.026;2022-11-13T15:14:40;7.4;6;4.2
55857;PMS7003;41779;52.360;31.026;2022-11-13T15:19:40;7.2;4.8;3.4
55857;PMS7003;41779;52.360;31.026;2022-11-13T15:24:18;6.2;4.2;3.2
55857;PMS7003;41779;52.360;31.026;2022-11-13T15:29:56;7.6;4.8;3.4
55857;PMS7003;41779;52.360;31.026;2022-11-13T15:34:56;4.5;4;3
55857;PMS7003;41779;52.360;31.026;2022-11-13T15:39:18;5.4;4.6;3.4
55857;PMS7003;41779;52.360;31.026;2022-11-13T15:44:56;8.3;4.3;3.3
55857;PMS7003;41779;52.360;31.026;2022-11-13T15:49:18;8;5.4;4
55857;PMS7003;41779;52.360;31.026;2022-11-13T15:54:12;7.3;5.3;4.3
55857;PMS7003;41779;52.360;31.026;2022-11-13T15:59:30;6;3.8;2.8
55857;PMS7003;41779;52.360;31.026;2022-11-13T16:04:54;5;3;2.2
55857;PMS7003;41779;52.360;31.026;2022-11-13T16:09:56;6.2;3.6;3
55857;PMS7003;41779;52.360;31.026;2022-11-13T16:14:18;4;2.6;2
55857;PMS7003;41779;52.360;31.026;2022-11-13T16:19:09;3;2.3;2.3
55857;PMS7003;41779;52.360;31.026;2022-11-13T16:24:42;7.4;4.4;3.2
55857;PMS7003;41779;52.360;31.026;2022-11-13T16:29:44;5.2;3.8;3.2
55857;PMS7003;41779;52.360;31.026;2022-11-13T16:34:28;8.6;5;3.4
55857;PMS7003;41779;52.360;31.026;2022-11-13T16:39:18;7.6;5;3.6
55857;PMS7003;41779;52.360;31.026;2022-11-13T16:44:18;8.4;4.6;3.2
55857;PMS7003;41779;52.360;31.026;2022-11-13T16:49:32;6;3.4;2.4
55857;PMS7003;41779;52.360;31.026;2022-11-13T16:54:30;5.2;3.2;2.6
55857;PMS7003;41779;52.360;31.026;2022-11-13T16:59:56;5.6;4;3.2
55857;PMS7003;41779;52.360;31.026;2022-11-13T17:04:08;4.4;3.6;2.8
55857;PMS7003;41779;52.360;31.026;2022-11-13T17:09:08;5.8;4.8;3.2
55857;PMS7003;41779;52.360;31.026;2022-11-13T17:14:30;6.2;3.6;3.2
55857;PMS7003;41779;52.360;31.026;2022-11-13T17:19:56;6;5.5;3.8
55857;PMS7003;41779;52.360;31.026;2022-11-13T17:24:56;5.8;4;3
55857;PMS7003;41779;52.360;31.026;2022-11-13T17:29:08;5.2;3.6;2.8
55857;PMS7003;41779;52.360;31.026;2022-11-13T17:34:18;5.8;4.2;3.4
55857;PMS7003;41779;52.360;31.026;2022-11-13T17:39:40;7.8;7;5.4
55857;PMS7003;41779;52.360;31.026;2022-11-13T17:44:44;9;7;3.8
55857;PMS7003;41779;52.360;31.026;2022-11-13T17:49:28;5.6;4.8;3.6
55857;PMS7003;41779;52.360;31.026;2022-11-13T17:54:08;5.6;4;3.2
55857;PMS7003;41779;52.360;31.026;2022-11-13T17:59:08;8.6;3.6;3.4
55857;PMS7003;41779;52.360;31.026;2022-11-13T18:04:44;4.5;3.8;2.8
55857;PMS7003;41779;52.360;31.026;2022-11-13T18:09:42;6.6;4.2;3.6
55857;PMS7003;41779;52.360;31.026;2022-11-13T18:14:58;8.6;6.8;5.4
55857;PMS7003;41779;52.360;31.026;2022-11-13T18:19:08;6.8;5.4;4.8
55857;PMS7003;41779;52.360;31.026;2022-11-13T18:24:11;7.4;5.6;4.6
55857;PMS7003;41779;52.360;31.026;2022-11-13T18:29:18;7;6;4
55857;PMS7003;41779;52.360;31.026;2022-11-13T18:34:58;8.4;6.4;4.4
55857;PMS7003;41779;52.360;31.026;2022-11-13T18:39:56;10.8;7.6;6.2
55857;PMS7003;41779;52.360;31.026;2022-11-13T18:44:08;8;6.3;5.7
55857;PMS7003;41779;52.360;31.026;2022-11-13T18:49:08;7.4;5.4;4.6
55857;PMS7003;41779;52.360;31.026;2022-11-13T18:54:58;7.4;5.8;4.8
55857;PMS7003;41779;52.360;31.026;2022-11-13T18:59:44;7.3;6.5;4.5
55857;PMS7003;41779;52.360;31.026;2022-11-13T19:04:08;8;5.8;4.3
55857;PMS7003;41779;52.360;31.026;2022-11-13T19:09:56;6.5;5.3;4.5
55857;PMS7003;41779;52.360;31.026;2022-11-13T19:14:18;6;5;3.5
55857;PMS7003;41779;52.360;31.026;2022-11-13T19:19:44;8.5;5.5;5.3
55857;PMS7003;41779;52.360;31.026;2022-11-13T19:24:18;7.8;6.3;5
55857;PMS7003;41779;52.360;31.026;2022-11-13T19:29:56;7.2;6;5.2
55857;PMS7003;41779;52.360;31.026;2022-11-13T19:34:18;8;5.4;4.4
55857;PMS7003;41779;52.360;31.026;2022-11-13T19:39:08;8.6;6;4.4
55857;PMS7003;41779;52.360;31.026;2022-11-13T19:44:20;9.2;7.2;5.6
55857;PMS7003;41779;52.360;31.026;2022-11-13T19:49:56;9;6.8;5
55857;PMS7003;41779;52.360;31.026;2022-11-13T19:54:56;9.2;6.8;5.6
55857;PMS7003;41779;52.360;31.026;2022-11-13T19:59:18;10.2;8.2;7
55857;PMS7003;41779;52.360;31.026;2022-11-13T20:04:18;9.8;7.8;6
55857;PMS7003;41779;52.360;31.026;2022-11-13T20:09:44;8.8;5.8;5.2
55857;PMS7003;41779;52.360;31.026;2022-11-13T20:14:32;10.2;6.4;5.2
55857;PMS7003;41779;52.360;31.026;2022-11-13T20:19:30;6.8;5.4;4
55857;PMS7003;41779;52.360;31.026;2022-11-13T20:24:46;5.6;4.6;3.2
55857;PMS7003;41779;52.360;31.026;2022-11-13T20:29:18;5.4;4.4;3.2
55857;PMS7003;41779;52.360;31.026;2022-11-13T20:34:58;6;4.8;3.8
55857;PMS7003;41779;52.360;31.026;2022-11-13T20:39:30;6.2;5.4;4.6
55857;PMS7003;41779;52.360;31.026;2022-11-13T20:44:56;7.8;6.8;5.8
55857;PMS7003;41779;52.360;31.026;2022-11-13T20:49:20;7.5;4.8;3.5
55857;PMS7003;41779;52.360;31.026;2022-11-13T20:54:18;6;5.4;3.8
55857;PMS7003;41779;52.360;31.026;2022-11-13T20:59:08;7.6;5.2;4
55857;PMS7003;41779;52.360;31.026;2022-11-13T21:04:42;7;5.2;3.4
55857;PMS7003;41779;52.360;31.026;2022-11-13T21:09:56;4.6;3.2;2.8
55857;PMS7003;41779;52.360;31.026;2022-11-13T21:14:44;3.8;2.6;2
55857;PMS7003;41779;52.360;31.026;2022-11-13T21:19:30;4;2.2;2.2
55857;PMS7003;41779;52.360;31.026;2022-11-13T21:24:32;2.5;2.5;2
55857;PMS7003;41779;52.360;31.026;2022-11-13T21:29:44;1.8;1.6;1.4
55857;PMS7003;41779;52.360;31.026;2022-11-13T21:34:28;3;1.8;1.3
55857;PMS7003;41779;52.360;31.026;2022-11-13T21:39:58;5.4;2.2;2.2
55857;PMS7003;41779;52.360;31.026;2022-11-13T21:44:08;4.2;3;2.4
55857;PMS7003;41779;52.360;31.026;2022-11-13T21:49:58;1.8;1.8;1.3
55857;PMS7003;41779;52.360;31.026;2022-11-13T21:54:56;2.6;2;1.6
55857;PMS7003;41779;52.360;31.026;2022-11-13T21:59:54;2.8;1.6;1.6
55857;PMS7003;41779;52.360;31.026;2022-11-13T22:04:18;3.2;2;2
55857;PMS7003;41779;52.360;31.026;2022-11-13T22:09:21;4.4;3.8;3
55857;PMS7003;41779;52.360;31.026;2022-11-13T22:14:26;5;3.2;2.2
55857;PMS7003;41779;52.360;31.026;2022-11-13T22:19:28;3.4;2.4;2
55857;PMS7003;41779;52.360;31.026;2022-11-13T22:24:52;2.8;2.2;1.8
55857;PMS7003;41779;52.360;31.026;2022-11-13T22:29:52;2.8;1.6;1.2
55857;PMS7003;41779;52.360;31.026;2022-11-13T22:34:20;3.6;2.2;1.6
55857;PMS7003;41779;52.360;31.026;2022-11-13T22:39:38;4.6;3.8;3.2
55857;PMS7003;41779;52.360;31.026;2022-11-13T22:44:22;6.2;3.6;3
55857;PMS7003;41779;52.360;31.026;2022-11-13T22:49:46;4.5;3.8;2.3
55857;PMS7003;41779;52.360;31.026;2022-11-13T22:54:54;3.8;2.4;1.8
55857;PMS7003;41779;52.360;31.026;2022-11-13T22:59:26;2.2;2.2;2.2
55857;PMS7003;41779;52.360;31.026;2022-11-13T23:04:54;3;2;1.6
55857;PMS7003;41779;52.360;31.026;2022-11-13T23:09:08;2.8;1.6;1.2
55857;PMS7003;41779;52.360;31.026;2022-11-13T23:14:50;2.6;1.4;1
55857;PMS7003;41779;52.360;31.026;2022-11-13T23:19:26;1.8;1.6;1
55857;PMS7003;41779;52.360;31.026;2022-11-13T23:24:14;4.8;2.2;1.8
55857;PMS7003;41779;52.360;31.026;2022-11-13T23:29:24;2.2;1.2;1
55857;PMS7003;41779;52.360;31.026;2022-11-13T23:34:40;1.6;1.4;1
55857;PMS7003;41779;52.360;31.026;2022-11-13T23:39:48;1.8;1;1
55857;PMS7003;41779;52.360;31.026;2022-11-13T23:44:50;1;0.6;0.4
55857;PMS7003;41779;52.360;31.026;2022-11-13T23:49:24;1.8;1;1
55857;PMS7003;41779;52.360;31.026;2022-11-13T23:54:38;2.4;0.8;0.8
55857;PMS7003;41779;52.360;31.026;2022-11-13T23:59:38;2.8;1;0.5
